Time;durP1;ratioP1;P1;durP2;ratioP2;P2;SDS_P1;SDS_P2;PMS_P1;PMS_P2;Temp;Humidity;BMP_temperature;BMP_pressure;BME280_temperature;BME280_humidity;BME280_pressure;Samples;Min_cycle;Max_cycle;Signal;HPM_P1;HPM_P2
2023/12/29 00:02:22;;;;;;;18.80;3.67;;;10.60;89.50;;;;;;5056797;28;20094;-79
2023/12/29 00:04:48;;;;;;;15.57;3.63;;;10.60;89.90;;;;;;5051284;28;20381;-79
2023/12/29 00:07:13;;;;;;;17.33;3.20;;;10.50;90.30;;;;;;5050382;28;20025;-80
2023/12/29 00:09:40;;;;;;;14.98;3.65;;;10.50;90.60;;;;;;5054755;28;20043;-79
2023/12/29 00:12:07;;;;;;;18.10;4.45;;;10.40;90.70;;;;;;5050444;28;20037;-80
2023/12/29 00:14:33;;;;;;;20.05;3.95;;;10.50;90.80;;;;;;5054583;28;20119;-80
2023/12/29 00:17:00;;;;;;;18.67;3.67;;;10.50;90.70;;;;;;5055513;28;20078;-79
2023/12/29 00:19:25;;;;;;;16.60;3.78;;;10.50;90.50;;;;;;5057760;28;20025;-80
2023/12/29 00:21:51;;;;;;;13.05;3.17;;;10.40;90.40;;;;;;5040390;28;20021;-81
2023/12/29 00:24:17;;;;;;;14.10;3.20;;;10.50;90.40;;;;;;5071622;28;20074;-81
2023/12/29 00:26:43;;;;;;;15.60;3.83;;;10.50;90.30;;;;;;5081290;28;20025;-81
2023/12/29 00:29:08;;;;;;;15.23;3.88;;;10.50;90.20;;;;;;5084684;28;20070;-80
2023/12/29 00:31:34;;;;;;;16.98;3.88;;;10.50;90.00;;;;;;5067397;28;20102;-79
2023/12/29 00:33:59;;;;;;;15.57;3.60;;;10.60;89.80;;;;;;5060156;28;20056;-80
2023/12/29 00:36:25;;;;;;;15.00;3.38;;;10.60;89.80;;;;;;5060321;28;20017;-78
2023/12/29 00:38:51;;;;;;;13.55;3.15;;;10.60;89.60;;;;;;5054173;28;20111;-80
2023/12/29 00:41:16;;;;;;;16.23;3.05;;;10.60;89.70;;;;;;5054233;28;20533;-80
2023/12/29 00:43:42;;;;;;;18.70;3.70;;;10.60;89.70;;;;;;5051367;28;20318;-79
2023/12/29 00:46:08;;;;;;;14.70;3.10;;;10.60;89.80;;;;;;5057397;28;20046;-80
2023/12/29 00:48:34;;;;;;;18.10;3.42;;;10.60;89.80;;;;;;5052205;28;20128;-79
2023/12/29 00:51:03;;;;;;;20.33;3.63;;;10.60;89.60;;;;;;5060874;28;20566;-78
2023/12/29 00:53:31;;;;;;;18.77;3.70;;;10.60;89.80;;;;;;5051108;28;20429;-79
2023/12/29 00:55:58;;;;;;;14.77;3.40;;;10.60;89.80;;;;;;5058590;28;20028;-79
2023/12/29 00:58:23;;;;;;;14.30;3.25;;;10.60;90.00;;;;;;5055924;28;20032;-80
2023/12/29 01:00:49;;;;;;;11.73;2.80;;;10.60;90.10;;;;;;5057855;28;20013;-81
2023/12/29 01:03:15;;;;;;;18.10;3.72;;;10.60;90.20;;;;;;5076351;28;20028;-79
2023/12/29 01:05:40;;;;;;;12.18;3.35;;;10.50;90.50;;;;;;5060248;28;20017;-80
2023/12/29 01:08:06;;;;;;;17.05;3.90;;;10.40;90.80;;;;;;5076025;28;20051;-82
2023/12/29 01:10:32;;;;;;;17.48;3.60;;;10.40;91.20;;;;;;5074875;28;20084;-81
2023/12/29 01:12:57;;;;;;;15.68;3.90;;;10.40;91.40;;;;;;5069601;28;20074;-81
2023/12/29 01:15:23;;;;;;;15.80;3.40;;;10.30;91.50;;;;;;5063967;28;20036;-77
2023/12/29 01:17:48;;;;;;;16.55;3.53;;;10.30;91.60;;;;;;5057319;28;20040;-80
2023/12/29 01:20:14;;;;;;;18.15;3.92;;;10.30;91.70;;;;;;5071397;28;20119;-80
2023/12/29 01:22:40;;;;;;;16.13;3.50;;;10.30;91.70;;;;;;5071513;28;20054;-81
2023/12/29 01:25:06;;;;;;;16.23;3.08;;;10.20;91.70;;;;;;5067022;28;20054;-81
2023/12/29 01:27:32;;;;;;;15.38;3.13;;;10.20;91.60;;;;;;5054165;28;20041;-78
2023/12/29 01:29:58;;;;;;;15.80;3.75;;;10.20;91.60;;;;;;5058965;28;20586;-80
2023/12/29 01:32:23;;;;;;;13.68;3.85;;;10.20;91.60;;;;;;5037885;28;20330;-79
2023/12/29 01:34:49;;;;;;;12.98;3.00;;;10.20;91.50;;;;;;5057122;28;20075;-79
2023/12/29 01:37:14;;;;;;;15.02;3.38;;;10.20;91.40;;;;;;5036616;28;20462;-78
2023/12/29 01:39:40;;;;;;;13.80;3.70;;;10.30;91.30;;;;;;5053858;28;20017;-79
2023/12/29 01:42:06;;;;;;;15.20;4.00;;;10.20;91.20;;;;;;5051098;28;20103;-81
2023/12/29 01:44:32;;;;;;;15.98;2.90;;;10.30;91.30;;;;;;5055810;28;20157;-81
2023/12/29 01:47:02;;;;;;;17.77;3.25;;;10.30;91.20;;;;;;5053390;28;20012;-79
2023/12/29 01:49:29;;;;;;;17.20;3.88;;;10.30;91.20;;;;;;5032212;28;20192;-80
2023/12/29 01:51:57;;;;;;;18.42;3.22;;;10.40;91.10;;;;;;5033618;28;20381;-80
2023/12/29 01:54:25;;;;;;;17.25;3.65;;;10.40;91.20;;;;;;5054872;28;20044;-80
2023/12/29 01:56:55;;;;;;;18.77;3.95;;;10.40;91.50;;;;;;5051447;28;20028;-78
2023/12/29 01:59:21;;;;;;;17.25;3.72;;;10.40;91.70;;;;;;5048580;28;20040;-79
2023/12/29 02:01:47;;;;;;;12.75;3.38;;;10.50;91.70;;;;;;5051942;28;20411;-80
2023/12/29 02:04:13;;;;;;;16.25;3.55;;;10.50;91.60;;;;;;5053535;28;20033;-79
2023/12/29 02:06:43;;;;;;;18.73;3.58;;;10.40;91.70;;;;;;5051429;28;20020;-80
2023/12/29 02:09:09;;;;;;;15.40;3.40;;;10.40;91.80;;;;;;5032928;28;20132;-81
2023/12/29 02:11:35;;;;;;;15.55;2.92;;;10.40;91.80;;;;;;5052413;28;20020;-79
2023/12/29 02:14:02;;;;;;;17.38;3.60;;;10.40;92.00;;;;;;5051837;28;20499;-81
2023/12/29 02:16:40;;;;;;;19.17;4.22;;;10.40;92.00;;;;;;5050582;28;20047;-80
2023/12/29 02:19:33;;;;;;;14.10;3.33;;;10.40;92.00;;;;;;5053674;28;20033;-79
2023/12/29 02:21:58;;;;;;;14.18;3.53;;;10.40;91.90;;;;;;5050848;28;20037;-79
2023/12/29 02:24:24;;;;;;;15.25;3.10;;;10.40;92.00;;;;;;5054061;28;20369;-78
2023/12/29 02:26:59;;;;;;;15.95;3.80;;;10.40;92.10;;;;;;5054610;28;20158;-78
2023/12/29 02:29:26;;;;;;;14.25;3.17;;;10.40;92.10;;;;;;5048228;28;20033;-80
2023/12/29 02:31:58;;;;;;;12.82;3.15;;;10.40;92.10;;;;;;5050592;28;20108;-81
2023/12/29 02:34:24;;;;;;;16.08;3.55;;;10.40;92.00;;;;;;5050220;28;20073;-80
2023/12/29 02:36:51;;;;;;;16.52;3.35;;;10.30;92.00;;;;;;5052052;28;20048;-79
2023/12/29 02:39:17;;;;;;;18.77;3.38;;;10.40;91.90;;;;;;5051799;28;21398;-79
2023/12/29 02:41:42;;;;;;;14.32;3.25;;;10.40;91.80;;;;;;5055031;28;20043;-79
2023/12/29 02:44:09;;;;;;;15.70;3.50;;;10.30;91.70;;;;;;5053873;28;20465;-80
2023/12/29 02:46:35;;;;;;;17.77;4.30;;;10.40;91.70;;;;;;5052204;28;20020;-79
2023/12/29 02:49:00;;;;;;;16.20;3.65;;;10.30;91.60;;;;;;5050727;28;20218;-78
2023/12/29 02:51:26;;;;;;;15.10;3.20;;;10.30;91.60;;;;;;5050450;28;20024;-80
2023/12/29 02:53:51;;;;;;;13.23;3.50;;;10.30;91.60;;;;;;5039072;28;20098;-79
2023/12/29 02:56:17;;;;;;;14.32;2.90;;;10.40;91.60;;;;;;5050270;28;20052;-79
2023/12/29 02:58:45;;;;;;;10.88;3.17;;;10.30;91.60;;;;;;5052036;28;20040;-79
2023/12/29 03:01:11;;;;;;;15.07;4.13;;;10.30;91.60;;;;;;5048087;28;20071;-80
2023/12/29 03:03:39;;;;;;;18.02;3.53;;;10.30;91.80;;;;;;5054321;28;20385;-79
2023/12/29 03:06:05;;;;;;;19.55;3.67;;;10.30;91.70;;;;;;5047945;28;20021;-80
2023/12/29 03:08:32;;;;;;;18.42;3.85;;;10.30;91.60;;;;;;5050207;28;20057;-79
2023/12/29 03:10:59;;;;;;;14.95;3.97;;;10.40;91.50;;;;;;5037771;28;20401;-78
2023/12/29 03:13:24;;;;;;;17.35;3.90;;;10.40;91.40;;;;;;5046923;28;20408;-79
2023/12/29 03:15:50;;;;;;;12.95;3.50;;;10.40;91.50;;;;;;5050455;28;20057;-78
2023/12/29 03:18:15;;;;;;;16.92;3.72;;;10.40;91.50;;;;;;5051728;28;20033;-81
2023/12/29 03:20:41;;;;;;;15.00;3.38;;;10.30;91.70;;;;;;5055239;28;20033;-79
2023/12/29 03:23:07;;;;;;;15.68;3.22;;;10.30;91.80;;;;;;5051441;28;20033;-78
2023/12/29 03:25:32;;;;;;;19.88;3.90;;;10.30;91.90;;;;;;5050063;28;20012;-79
2023/12/29 03:27:58;;;;;;;13.23;3.13;;;10.30;92.00;;;;;;5049347;28;20083;-79
2023/12/29 03:30:24;;;;;;;17.52;3.28;;;10.30;92.00;;;;;;5033886;28;20158;-80
2023/12/29 03:32:50;;;;;;;24.27;4.43;;;10.30;92.10;;;;;;5055977;28;20043;-80
2023/12/29 03:35:16;;;;;;;12.70;2.70;;;10.30;92.30;;;;;;5033766;28;20437;-79
2023/12/29 03:37:42;;;;;;;12.52;3.22;;;10.30;92.30;;;;;;5055850;28;20040;-78
2023/12/29 03:40:08;;;;;;;16.85;4.15;;;10.30;92.30;;;;;;5052032;28;20055;-81
2023/12/29 03:42:34;;;;;;;17.48;4.57;;;10.30;92.30;;;;;;5058395;28;20533;-80
2023/12/29 03:44:59;;;;;;;14.50;3.78;;;10.30;92.30;;;;;;5036748;28;20017;-80
2023/12/29 03:47:25;;;;;;;16.60;3.47;;;10.20;92.40;;;;;;5054605;28;20025;-78
2023/12/29 03:49:51;;;;;;;15.15;3.50;;;10.20;92.50;;;;;;5057045;28;20101;-79
2023/12/29 03:52:16;;;;;;;14.00;3.42;;;10.10;92.60;;;;;;5052969;28;20036;-81
2023/12/29 03:54:42;;;;;;;15.85;3.50;;;10.10;92.60;;;;;;5048985;28;20055;-81
2023/12/29 03:57:07;;;;;;;16.52;4.22;;;10.10;92.70;;;;;;5050533;28;21467;-81
2023/12/29 03:59:37;;;;;;;23.38;4.20;;;10.10;92.70;;;;;;5055035;28;20397;-80
2023/12/29 04:02:03;;;;;;;17.08;3.97;;;10.10;92.80;;;;;;5038974;28;20107;-79
2023/12/29 04:04:28;;;;;;;18.63;3.78;;;10.10;92.70;;;;;;5054647;28;20039;-81
2023/12/29 04:06:54;;;;;;;16.52;3.13;;;10.20;92.70;;;;;;5054614;28;20052;-80
2023/12/29 04:09:21;;;;;;;17.13;3.40;;;10.20;92.60;;;;;;5051383;28;20238;-79
2023/12/29 04:11:46;;;;;;;15.43;4.03;;;10.20;92.60;;;;;;5050025;28;20118;-81
2023/12/29 04:14:12;;;;;;;13.73;3.72;;;10.20;92.40;;;;;;5035217;28;20029;-79
2023/12/29 04:16:39;;;;;;;14.73;2.88;;;10.20;92.50;;;;;;5057888;28;20040;-79
2023/12/29 04:19:04;;;;;;;12.30;3.47;;;10.20;92.40;;;;;;5051993;28;20159;-80
2023/12/29 04:21:30;;;;;;;11.35;3.05;;;10.20;92.40;;;;;;5045223;28;20040;-79
2023/12/29 04:23:56;;;;;;;16.45;3.30;;;10.10;92.50;;;;;;5052857;28;20032;-80
2023/12/29 04:26:21;;;;;;;13.00;3.42;;;10.10;92.50;;;;;;5058937;28;20078;-81
2023/12/29 04:28:47;;;;;;;14.43;3.45;;;10.10;92.70;;;;;;5052773;28;20056;-80
2023/12/29 04:31:13;;;;;;;13.05;3.00;;;10.00;92.80;;;;;;5035192;28;20043;-81
2023/12/29 04:33:38;;;;;;;13.50;2.95;;;10.00;92.80;;;;;;5035293;28;20112;-79
2023/12/29 04:36:04;;;;;;;14.95;3.08;;;10.00;92.90;;;;;;5059033;28;20067;-80
2023/12/29 04:38:30;;;;;;;13.60;3.00;;;10.00;92.90;;;;;;5051425;28;20037;-80
2023/12/29 04:40:55;;;;;;;15.60;3.13;;;10.00;92.90;;;;;;5051229;28;20105;-82
2023/12/29 04:43:21;;;;;;;14.85;3.60;;;10.00;93.10;;;;;;5051814;28;20440;-81
2023/12/29 04:45:47;;;;;;;13.68;2.95;;;10.00;93.10;;;;;;5058845;28;20024;-80
2023/12/29 04:48:12;;;;;;;14.52;3.60;;;10.00;93.10;;;;;;5051367;28;20350;-79
2023/12/29 04:50:38;;;;;;;13.82;3.47;;;10.00;93.10;;;;;;5054988;28;20027;-79
2023/12/29 04:53:03;;;;;;;15.80;3.70;;;10.10;93.10;;;;;;5056702;28;20044;-80
2023/12/29 04:55:29;;;;;;;15.50;3.63;;;10.10;93.20;;;;;;5059384;28;20020;-80
2023/12/29 04:57:55;;;;;;;13.95;3.20;;;10.10;93.10;;;;;;5051056;28;20526;-78
2023/12/29 05:00:20;;;;;;;17.27;3.67;;;10.10;93.40;;;;;;5038994;28;20031;-79
2023/12/29 05:02:46;;;;;;;13.73;3.20;;;10.10;93.40;;;;;;5038933;28;20070;-81
2023/12/29 05:05:11;;;;;;;13.30;2.92;;;10.10;93.50;;;;;;5053250;28;20072;-80
2023/12/29 05:07:37;;;;;;;18.63;3.88;;;10.10;93.60;;;;;;5050109;28;20041;-81
2023/12/29 05:10:03;;;;;;;15.18;3.38;;;10.10;93.70;;;;;;5051983;28;20040;-79
2023/12/29 05:12:29;;;;;;;15.00;3.70;;;10.10;93.70;;;;;;5058382;28;22468;-80
2023/12/29 05:14:55;;;;;;;13.13;3.78;;;10.10;93.70;;;;;;5074723;28;20103;-82
2023/12/29 05:17:21;;;;;;;12.45;3.42;;;10.20;93.80;;;;;;5060013;28;20314;-82
2023/12/29 05:19:46;;;;;;;12.30;3.25;;;10.20;93.80;;;;;;5082857;28;20073;-81
2023/12/29 05:22:15;;;;;;;20.55;3.67;;;10.20;93.90;;;;;;5058035;28;20070;-81
2023/12/29 05:24:42;;;;;;;14.60;3.95;;;10.20;94.00;;;;;;5071072;28;20043;-81
2023/12/29 05:27:07;;;;;;;14.55;3.28;;;10.20;94.00;;;;;;5055916;28;20412;-81
2023/12/29 05:29:33;;;;;;;12.93;3.75;;;10.10;94.00;;;;;;5055834;28;20048;-81
2023/12/29 05:31:59;;;;;;;13.98;3.60;;;10.20;94.10;;;;;;5047413;28;20269;-80
2023/12/29 05:34:24;;;;;;;18.00;3.50;;;10.20;94.20;;;;;;5053722;28;20062;-79
2023/12/29 05:36:50;;;;;;;12.05;2.92;;;10.30;94.40;;;;;;5053680;28;20090;-80
2023/12/29 05:39:15;;;;;;;15.27;3.20;;;10.20;94.60;;;;;;5035608;28;20105;-80
2023/12/29 05:41:41;;;;;;;12.70;3.72;;;10.20;94.70;;;;;;5053900;28;20049;-81
2023/12/29 05:44:07;;;;;;;15.25;3.70;;;10.20;94.80;;;;;;5034179;28;20045;-81
2023/12/29 05:46:32;;;;;;;12.07;3.45;;;10.20;94.90;;;;;;5052345;28;20410;-80
2023/12/29 05:48:58;;;;;;;17.85;4.50;;;10.20;95.00;;;;;;5056301;28;20047;-79
2023/12/29 05:51:24;;;;;;;21.35;4.55;;;10.20;95.20;;;;;;5050453;28;20438;-79
2023/12/29 05:53:50;;;;;;;15.00;3.95;;;10.10;95.40;;;;;;5054529;28;20021;-80
2023/12/29 05:56:15;;;;;;;15.82;3.85;;;10.10;95.60;;;;;;5056349;28;20048;-79
2023/12/29 05:58:42;;;;;;;16.92;3.92;;;10.10;95.60;;;;;;5052522;28;20044;-79
2023/12/29 06:01:08;;;;;;;13.32;3.88;;;10.10;95.80;;;;;;5048077;28;20436;-81
2023/12/29 06:03:34;;;;;;;12.25;3.42;;;10.00;95.90;;;;;;5052078;28;20457;-79
2023/12/29 06:06:00;;;;;;;16.33;3.58;;;10.00;96.00;;;;;;5053232;28;20036;-80
2023/12/29 06:08:25;;;;;;;15.45;3.15;;;10.00;96.10;;;;;;5048940;28;20062;-80
2023/12/29 06:10:51;;;;;;;14.38;3.50;;;10.00;96.20;;;;;;5052578;28;20342;-79
2023/12/29 06:13:17;;;;;;;12.75;3.28;;;9.90;96.30;;;;;;5048094;28;20040;-81
2023/12/29 06:15:42;;;;;;;10.93;3.67;;;9.90;96.50;;;;;;5037331;28;20047;-79
2023/12/29 06:18:08;;;;;;;13.15;3.47;;;9.90;96.60;;;;;;5055707;28;20384;-80
2023/12/29 06:20:34;;;;;;;12.43;3.45;;;9.90;96.60;;;;;;5033724;28;20496;-80
2023/12/29 06:22:59;;;;;;;13.98;3.60;;;9.90;96.70;;;;;;5051936;28;20044;-80
2023/12/29 06:25:26;;;;;;;14.68;3.80;;;9.80;96.80;;;;;;5050671;28;20354;-80
2023/12/29 06:27:53;;;;;;;15.40;3.30;;;9.80;97.00;;;;;;5052384;28;20136;-78
2023/12/29 06:30:19;;;;;;;15.38;3.95;;;9.80;97.00;;;;;;5046049;28;20535;-79
2023/12/29 06:32:44;;;;;;;13.38;3.53;;;9.90;97.10;;;;;;5050836;28;20060;-79
2023/12/29 06:35:10;;;;;;;13.93;3.30;;;9.80;97.10;;;;;;5050138;28;20032;-81
2023/12/29 06:37:39;;;;;;;11.77;3.55;;;9.90;97.20;;;;;;5049435;28;20376;-80
2023/12/29 06:40:06;;;;;;;14.15;3.50;;;9.80;97.20;;;;;;5041392;28;20409;-81
2023/12/29 06:42:32;;;;;;;12.38;3.10;;;9.80;97.30;;;;;;5053481;28;20127;-80
2023/12/29 06:44:58;;;;;;;11.43;3.17;;;9.80;97.20;;;;;;5053899;28;20108;-78
2023/12/29 06:47:23;;;;;;;11.43;3.17;;;9.80;97.30;;;;;;5052692;28;20066;-80
2023/12/29 06:49:50;;;;;;;8.70;2.63;;;9.90;97.30;;;;;;5055098;28;20012;-79
2023/12/29 06:52:16;;;;;;;9.50;3.10;;;9.90;97.20;;;;;;5051943;28;20086;-80
2023/12/29 06:54:42;;;;;;;8.65;2.63;;;9.90;97.20;;;;;;5053603;28;20029;-81
2023/12/29 06:57:07;;;;;;;8.48;2.60;;;9.90;97.10;;;;;;5038407;28;20032;-80
2023/12/29 06:59:33;;;;;;;8.05;2.50;;;9.90;96.90;;;;;;5034755;28;20466;-80
2023/12/29 07:01:59;;;;;;;9.30;2.40;;;9.90;96.90;;;;;;5056555;28;20122;-79
2023/12/29 07:04:24;;;;;;;8.45;2.65;;;9.90;96.70;;;;;;5051988;28;20040;-79
2023/12/29 07:06:50;;;;;;;8.93;2.00;;;9.90;96.60;;;;;;5045694;28;20480;-79
2023/12/29 07:09:16;;;;;;;9.00;2.50;;;9.90;96.50;;;;;;5054718;28;20076;-80
2023/12/29 07:11:41;;;;;;;7.43;1.83;;;9.90;96.50;;;;;;5058492;28;20025;-80
2023/12/29 07:14:07;;;;;;;7.97;2.20;;;10.00;96.60;;;;;;5056747;28;20036;-78
2023/12/29 07:16:33;;;;;;;5.28;1.65;;;10.00;96.60;;;;;;5038207;28;20037;-79
2023/12/29 07:18:58;;;;;;;4.30;1.52;;;10.00;96.50;;;;;;5053815;28;20032;-80
2023/12/29 07:21:24;;;;;;;2.92;1.10;;;10.00;96.50;;;;;;5056041;28;20055;-79
2023/12/29 07:23:49;;;;;;;4.57;2.03;;;10.00;96.30;;;;;;5054918;28;20028;-80
2023/12/29 07:26:15;;;;;;;5.53;1.50;;;10.00;96.40;;;;;;5050666;28;20092;-79
2023/12/29 07:28:41;;;;;;;4.55;1.33;;;10.00;96.30;;;;;;5047443;28;20139;-79
2023/12/29 07:31:07;;;;;;;3.40;1.30;;;10.00;96.30;;;;;;5034888;28;20020;-80
2023/12/29 07:33:34;;;;;;;3.85;1.33;;;10.00;96.30;;;;;;5056162;28;20036;-78
2023/12/29 07:36:00;;;;;;;3.78;1.48;;;10.10;96.40;;;;;;5056389;28;20017;-78
2023/12/29 07:38:25;;;;;;;3.83;1.65;;;10.10;96.60;;;;;;5053243;28;20055;-78
2023/12/29 07:40:51;;;;;;;3.95;1.52;;;10.00;96.90;;;;;;5056470;28;20120;-77
2023/12/29 07:43:16;;;;;;;4.85;1.40;;;10.10;97.10;;;;;;5053266;28;20044;-79
2023/12/29 07:45:43;;;;;;;3.47;1.60;;;10.10;97.30;;;;;;5040694;28;20028;-78
2023/12/29 07:48:09;;;;;;;3.00;1.70;;;10.00;97.50;;;;;;5053244;28;20029;-77
2023/12/29 07:50:35;;;;;;;7.30;1.88;;;10.00;97.60;;;;;;5053540;28;20029;-79
2023/12/29 07:53:02;;;;;;;3.90;1.77;;;10.10;97.70;;;;;;5056131;28;20029;-79
2023/12/29 07:55:30;;;;;;;4.88;1.90;;;10.10;97.80;;;;;;5055076;28;20030;-79
2023/12/29 07:57:56;;;;;;;6.35;3.30;;;10.10;97.90;;;;;;5058156;28;20036;-80
2023/12/29 08:00:23;;;;;;;6.40;3.60;;;10.10;97.90;;;;;;5058083;28;20032;-80
2023/12/29 08:02:48;;;;;;;5.32;3.00;;;10.10;98.00;;;;;;5052734;28;20029;-77
2023/12/29 08:05:15;;;;;;;6.72;3.70;;;10.00;98.10;;;;;;5053656;28;20079;-77
2023/12/29 08:07:41;;;;;;;15.35;9.75;;;10.00;98.30;;;;;;5035451;28;20080;-77
2023/12/29 08:10:07;;;;;;;19.40;11.00;;;10.10;98.40;;;;;;5048623;28;20923;-78
2023/12/29 08:12:33;;;;;;;17.23;10.65;;;10.10;98.40;;;;;;5032680;28;20449;-77
2023/12/29 08:15:00;;;;;;;8.95;4.60;;;10.10;98.50;;;;;;5050959;28;20125;-78
2023/12/29 08:17:26;;;;;;;12.45;5.63;;;10.10;98.50;;;;;;5052713;28;20357;-79
2023/12/29 08:19:51;;;;;;;8.57;3.70;;;10.00;98.50;;;;;;5054351;28;20033;-77
2023/12/29 08:22:18;;;;;;;11.30;5.50;;;10.10;98.50;;;;;;5051580;28;20023;-79
2023/12/29 08:24:44;;;;;;;8.35;3.08;;;10.10;98.30;;;;;;5047079;28;20121;-78
2023/12/29 08:27:11;;;;;;;10.15;3.78;;;10.10;98.20;;;;;;5054852;28;20123;-77
2023/12/29 08:29:37;;;;;;;13.70;4.95;;;10.10;98.20;;;;;;5055589;28;20478;-79
2023/12/29 08:32:03;;;;;;;7.35;3.30;;;10.10;98.10;;;;;;5053037;28;20104;-78
2023/12/29 08:34:29;;;;;;;10.27;3.53;;;10.10;98.00;;;;;;5056662;28;20373;-80
2023/12/29 08:36:54;;;;;;;7.28;3.03;;;10.10;97.80;;;;;;5051956;28;20090;-80
2023/12/29 08:39:20;;;;;;;7.40;3.00;;;10.10;97.70;;;;;;5031928;28;20033;-74
2023/12/29 08:41:47;;;;;;;9.15;3.25;;;10.10;97.60;;;;;;5052708;28;20627;-74
2023/12/29 08:44:12;;;;;;;9.23;2.95;;;10.20;97.50;;;;;;5056996;28;20110;-80
2023/12/29 08:46:38;;;;;;;7.13;3.08;;;10.20;97.40;;;;;;5046682;28;20508;-80
2023/12/29 08:49:04;;;;;;;7.32;2.80;;;10.20;97.30;;;;;;5051583;28;20098;-79
2023/12/29 08:51:29;;;;;;;10.80;2.75;;;10.30;97.20;;;;;;5055100;28;20039;-78
2023/12/29 08:53:55;;;;;;;9.02;2.95;;;10.30;97.20;;;;;;5043419;28;20383;-75
2023/12/29 08:56:21;;;;;;;5.88;2.17;;;10.30;97.00;;;;;;5053712;28;20445;-77
2023/12/29 08:58:46;;;;;;;7.32;2.17;;;10.30;96.80;;;;;;5053590;28;20089;-74
2023/12/29 09:01:12;;;;;;;10.30;2.70;;;10.30;96.60;;;;;;5055657;28;20017;-76
2023/12/29 09:03:38;;;;;;;5.85;2.70;;;10.40;96.30;;;;;;5044609;28;20025;-79
2023/12/29 09:06:04;;;;;;;5.68;2.22;;;10.40;96.20;;;;;;5050257;28;20021;-75
2023/12/29 09:08:30;;;;;;;5.97;2.08;;;10.40;95.90;;;;;;5046522;28;20052;-73
2023/12/29 09:10:56;;;;;;;6.03;1.92;;;10.30;95.60;;;;;;5052993;28;20080;-77
2023/12/29 09:13:25;;;;;;;6.18;2.17;;;10.30;95.30;;;;;;5055468;28;20086;-74
2023/12/29 09:15:50;;;;;;;6.40;2.03;;;10.40;95.30;;;;;;5052787;28;20256;-76
2023/12/29 09:18:16;;;;;;;8.05;1.80;;;10.40;95.10;;;;;;5049537;28;20380;-75
2023/12/29 09:20:42;;;;;;;5.00;1.80;;;10.40;95.10;;;;;;5046675;28;20048;-78
2023/12/29 09:23:08;;;;;;;5.32;2.15;;;10.30;95.10;;;;;;5049640;28;20717;-76
2023/12/29 09:25:33;;;;;;;6.80;1.63;;;10.30;95.10;;;;;;5049279;28;20571;-75
2023/12/29 09:27:59;;;;;;;5.80;1.50;;;10.30;94.80;;;;;;5054564;28;20036;-75
2023/12/29 09:30:24;;;;;;;3.47;1.20;;;10.20;94.30;;;;;;5052270;28;20124;-74
2023/12/29 09:32:50;;;;;;;3.97;1.50;;;10.10;94.40;;;;;;5033603;28;20065;-73
2023/12/29 09:35:17;;;;;;;5.05;1.67;;;10.20;94.60;;;;;;5042944;28;20139;-78
2023/12/29 09:37:43;;;;;;;3.38;1.20;;;10.20;94.80;;;;;;5052807;28;20031;-76
2023/12/29 09:40:10;;;;;;;5.95;2.00;;;10.20;95.30;;;;;;5060235;28;20096;-73
2023/12/29 09:42:38;;;;;;;5.03;1.60;;;10.20;95.70;;;;;;5055546;28;20029;-76
2023/12/29 09:45:08;;;;;;;5.07;1.60;;;10.40;96.00;;;;;;5050317;28;20036;-82
2023/12/29 09:47:41;;;;;;;5.95;1.70;;;10.50;96.30;;;;;;5054014;28;20151;-78
2023/12/29 09:50:13;;;;;;;9.45;2.58;;;10.50;96.60;;;;;;5056719;28;20020;-78
2023/12/29 09:52:40;;;;;;;5.85;2.10;;;10.60;96.70;;;;;;5030333;28;20409;-76
2023/12/29 09:55:10;;;;;;;10.30;3.20;;;10.60;96.90;;;;;;5050045;28;20009;-76
2023/12/29 09:57:39;;;;;;;6.60;2.70;;;10.70;96.80;;;;;;5047620;28;20032;-76
2023/12/29 10:00:10;;;;;;;10.05;3.20;;;10.80;96.60;;;;;;5035097;28;20359;-78
2023/12/29 10:02:37;;;;;;;13.10;3.97;;;10.80;96.60;;;;;;5054871;28;20036;-76
2023/12/29 10:05:04;;;;;;;14.77;4.07;;;11.00;96.60;;;;;;5049717;28;20032;-77
2023/12/29 10:07:38;;;;;;;11.43;3.80;;;11.10;96.40;;;;;;5051223;28;20284;-86
2023/12/29 10:10:06;;;;;;;14.40;4.43;;;11.10;96.30;;;;;;5050206;28;20328;-80
2023/12/29 10:12:33;;;;;;;12.00;4.25;;;11.10;96.30;;;;;;5048405;28;20037;-81
2023/12/29 10:15:09;;;;;;;8.75;3.88;;;11.10;96.30;;;;;;5057336;28;20044;-77
2023/12/29 10:18:06;;;;;;;14.75;5.13;;;11.10;96.40;;;;;;5056929;28;20070;-77
2023/12/29 10:20:48;;;;;;;16.05;5.05;;;11.20;96.30;;;;;;5074336;28;20554;-83
2023/12/29 10:23:22;;;;;;;14.50;4.57;;;11.20;96.30;;;;;;5052341;28;20104;-75
2023/12/29 10:25:49;;;;;;;12.15;4.30;;;11.10;96.30;;;;;;5054392;28;20043;-80
2023/12/29 10:28:18;;;;;;;11.90;4.43;;;11.20;96.40;;;;;;5061604;28;20059;-81
2023/12/29 10:30:46;;;;;;;15.77;5.00;;;11.20;96.50;;;;;;5041840;28;20428;-79
2023/12/29 10:33:21;;;;;;;15.63;4.90;;;11.20;96.60;;;;;;5053695;28;20028;-82
2023/12/29 10:36:02;;;;;;;12.15;4.70;;;11.20;96.70;;;;;;5048192;28;20037;-79
2023/12/29 10:38:29;;;;;;;14.82;4.10;;;11.30;96.60;;;;;;5032730;28;20913;-82
2023/12/29 10:41:15;;;;;;;13.77;4.00;;;11.30;96.60;;;;;;5035663;28;20021;-83
2023/12/29 10:43:47;;;;;;;11.50;4.13;;;11.40;96.60;;;;;;5048998;28;20431;-81
2023/12/29 10:46:13;;;;;;;11.52;4.88;;;11.40;96.50;;;;;;5056134;28;20245;-81
2023/12/29 10:48:39;;;;;;;16.33;5.63;;;11.50;96.30;;;;;;5050981;28;20037;-81
2023/12/29 10:51:06;;;;;;;13.95;5.72;;;11.50;96.40;;;;;;5038441;28;20119;-81
2023/12/29 10:53:35;;;;;;;13.18;5.05;;;11.50;96.30;;;;;;5046402;28;20032;-82
2023/12/29 10:56:02;;;;;;;14.27;4.80;;;11.40;96.20;;;;;;5035067;28;20043;-81
2023/12/29 10:58:29;;;;;;;13.65;5.65;;;11.50;96.20;;;;;;5011611;28;20045;-82
2023/12/29 11:01:02;;;;;;;16.05;6.10;;;11.40;96.20;;;;;;5041522;28;20029;-81
2023/12/29 11:03:28;;;;;;;14.20;5.10;;;11.40;96.30;;;;;;5050902;28;20025;-82
2023/12/29 11:06:00;;;;;;;13.75;5.35;;;11.40;96.30;;;;;;5050043;28;20028;-80
2023/12/29 11:08:26;;;;;;;15.20;5.63;;;11.40;96.20;;;;;;5053692;28;20047;-80
2023/12/29 11:10:54;;;;;;;13.13;5.68;;;11.40;96.20;;;;;;5052026;28;20024;-81
2023/12/29 11:13:21;;;;;;;13.23;5.72;;;11.30;96.30;;;;;;5048624;28;20041;-80
2023/12/29 11:15:51;;;;;;;12.68;5.45;;;11.30;96.40;;;;;;5034736;28;20041;-78
2023/12/29 11:18:19;;;;;;;26.40;6.35;;;11.20;96.70;;;;;;5051507;28;20028;-79
2023/12/29 11:20:46;;;;;;;15.52;6.30;;;11.10;96.90;;;;;;5053392;28;20561;-83
2023/12/29 11:23:13;;;;;;;15.15;5.78;;;11.20;97.00;;;;;;5050154;28;20052;-81
2023/12/29 11:25:39;;;;;;;11.82;5.22;;;11.20;97.00;;;;;;5037937;28;20024;-81
2023/12/29 11:28:11;;;;;;;12.60;5.47;;;11.10;97.00;;;;;;5058258;28;20053;-79
2023/12/29 11:30:39;;;;;;;11.48;5.35;;;11.10;97.00;;;;;;5050762;28;20120;-81
2023/12/29 11:33:31;;;;;;;13.13;5.55;;;11.10;97.00;;;;;;5048938;28;20033;-80
2023/12/29 11:36:04;;;;;;;10.98;4.22;;;11.20;96.90;;;;;;5046505;28;20480;-81
2023/12/29 11:38:45;;;;;;;9.20;4.55;;;11.10;96.90;;;;;;5034579;28;20400;-80
2023/12/29 11:41:42;;;;;;;12.50;3.95;;;11.20;96.80;;;;;;5047841;28;20059;-84
2023/12/29 11:44:08;;;;;;;11.27;3.90;;;11.30;96.70;;;;;;5027568;28;20037;-82
2023/12/29 11:46:38;;;;;;;11.70;4.43;;;11.30;96.60;;;;;;5040322;28;20419;-82
2023/12/29 11:49:04;;;;;;;11.45;4.20;;;11.30;96.60;;;;;;5045081;28;20037;-80
2023/12/29 11:51:44;;;;;;;10.40;3.83;;;11.30;96.50;;;;;;5045777;28;20075;-80
2023/12/29 11:54:10;;;;;;;10.98;3.92;;;11.30;96.40;;;;;;5046875;28;20393;-80
2023/12/29 11:56:40;;;;;;;9.40;3.40;;;11.30;96.10;;;;;;5053031;28;20020;-81
2023/12/29 11:59:16;;;;;;;7.35;2.70;;;11.10;96.30;;;;;;5048797;28;20274;-81
2023/12/29 12:01:42;;;;;;;8.55;2.95;;;11.20;96.20;;;;;;5047014;28;20932;-78
2023/12/29 12:04:33;;;;;;;7.85;3.45;;;11.20;96.10;;;;;;5050474;28;20031;-82
2023/12/29 12:06:59;;;;;;;9.95;2.90;;;11.20;96.20;;;;;;5050974;28;20020;-79
2023/12/29 12:09:26;;;;;;;7.13;3.15;;;11.10;96.20;;;;;;5048829;28;20047;-80
2023/12/29 12:11:52;;;;;;;7.72;3.10;;;11.10;96.30;;;;;;5053933;28;20083;-83
2023/12/29 12:14:47;;;;;;;8.50;2.88;;;11.10;96.20;;;;;;5051924;28;20029;-81
2023/12/29 12:17:26;;;;;;;6.03;2.38;;;11.20;96.20;;;;;;5050078;28;20636;-82
2023/12/29 12:19:56;;;;;;;6.55;2.22;;;11.10;96.10;;;;;;5049791;28;20031;-82
2023/12/29 12:22:24;;;;;;;4.85;2.10;;;11.20;95.80;;;;;;5051494;28;20024;-80
2023/12/29 12:24:57;;;;;;;5.57;2.30;;;11.10;95.90;;;;;;5053375;28;20017;-78
2023/12/29 12:27:25;;;;;;;7.03;2.50;;;11.30;95.90;;;;;;5050562;28;20032;-81
2023/12/29 12:29:58;;;;;;;6.53;2.45;;;11.20;95.70;;;;;;5057164;28;20024;-82
2023/12/29 12:32:28;;;;;;;6.97;2.42;;;11.20;95.80;;;;;;5055148;28;20031;-83
2023/12/29 12:34:55;;;;;;;8.32;2.55;;;11.30;95.90;;;;;;5052353;28;20094;-80
2023/12/29 12:37:21;;;;;;;6.68;2.33;;;11.30;95.90;;;;;;5052854;28;20017;-78
2023/12/29 12:39:47;;;;;;;9.57;3.17;;;11.30;95.80;;;;;;5032131;28;20138;-80
2023/12/29 12:42:14;;;;;;;7.93;2.50;;;11.20;95.90;;;;;;5047859;28;20021;-79